Terminal Aerodrome Forecast
Issued by NWS

Home | Current Version | Previous Version | Text Only | Print | Product List | Glossary On
Versions: 1 2 3 4 5 6 7 8 9 10 11 12 13 14 15 16 17 18 19 20 21 22 23 24 25 26 27
000
FTUS43 KDLH 251700
TAFHIB
TAF
KHIB 251736Z 2518/2618 12007KT P6SM OVC080
     FM252100 17004KT P6SM BKN040
     FM260300 17006KT P6SM BKN015 OVC040
     FM260600 18006KT 3SM -SN BR OVC015
     FM261200 18012KT 3SM -SN OVC012=

USA.gov is the U.S. government's official web portal to all federal, state and local government web resources and services.